Time;durP1;ratioP1;P1;durP2;ratioP2;P2;SDS_P1;SDS_P2;PMS_P1;PMS_P2;Temp;Humidity;BMP_temperature;BMP_pressure;BME280_temperature;BME280_humidity;BME280_pressure;Samples;Min_cycle;Max_cycle;Signal;HPM_P1;HPM_P2
2022/10/29 00:00:49;;;;;;;38.27;11.43;;;14.10;99.90;;;;;;5091855;28;21716;-78
2022/10/29 00:03:15;;;;;;;40.90;11.48;;;;;;;;;;5075068;28;20456;-78
2022/10/29 00:05:41;;;;;;;34.88;10.93;;;;;;;;;;5092710;28;20420;-78
2022/10/29 00:08:07;;;;;;;36.67;11.10;;;;;;;;;;5090602;28;20976;-78
2022/10/29 00:10:33;;;;;;;36.13;11.30;;;;;;;;;;5109509;28;20431;-78
2022/10/29 00:13:01;;;;;;;33.33;10.60;;;;;;;;;;5106808;28;20421;-78
2022/10/29 00:15:27;;;;;;;42.28;12.00;;;;;;;;;;5092593;28;20495;-78
2022/10/29 00:17:53;;;;;;;32.28;10.88;;;;;;;;;;5109802;28;20838;-78
2022/10/29 00:20:20;;;;;;;29.60;10.43;;;;;;;;;;5077440;28;20420;-78
2022/10/29 00:22:46;;;;;;;34.30;11.13;;;;;;;;;;5096338;28;21000;-78
2022/10/29 00:25:12;;;;;;;38.20;11.02;;;;;;;;;;5111234;28;20428;-78
2022/10/29 00:27:39;;;;;;;37.05;11.48;;;;;;;;;;5113195;28;20769;-78
2022/10/29 00:30:05;;;;;;;36.20;11.80;;;;;;;;;;5095989;28;20468;-78
2022/10/29 00:32:31;;;;;;;33.42;10.77;;;;;;;;;;5094969;28;20412;-78
2022/10/29 00:34:57;;;;;;;41.20;11.45;;;13.60;99.90;;;;;;5111033;28;20441;-78
2022/10/29 00:37:23;;;;;;;38.83;12.63;;;;;;;;;;5112272;28;20423;-78
2022/10/29 00:39:49;;;;;;;42.30;12.85;;;;;;;;;;5114257;28;20403;-78
2022/10/29 00:42:15;;;;;;;42.90;13.10;;;;;;;;;;5095518;28;20408;-78
2022/10/29 00:44:42;;;;;;;42.13;12.70;;;;;;;;;;5111595;28;20420;-77
2022/10/29 00:47:25;;;;;;;41.03;12.50;;;13.40;99.90;;;;;;5112831;28;20510;-77
2022/10/29 00:49:57;;;;;;;43.28;13.15;;;13.40;99.90;;;;;;5105960;28;20419;-77
2022/10/29 00:52:24;;;;;;;49.63;13.35;;;13.40;99.90;;;;;;5111956;28;20412;-78
2022/10/29 00:54:51;;;;;;;46.22;14.05;;;;;;;;;;5075243;28;20424;-78
2022/10/29 00:57:27;;;;;;;43.88;13.32;;;13.20;99.90;;;;;;5105915;28;20427;-78
2022/10/29 00:59:53;;;;;;;44.42;13.70;;;;;;;;;;5096276;28;20392;-78
2022/10/29 01:02:21;;;;;;;50.33;14.38;;;13.40;99.90;;;;;;5111733;28;20455;-78
2022/10/29 01:04:47;;;;;;;40.53;12.07;;;;;;;;;;5095866;28;20412;-78
2022/10/29 01:07:13;;;;;;;44.35;12.70;;;;;;;;;;5095465;28;20742;-78
2022/10/29 01:09:39;;;;;;;40.67;12.60;;;;;;;;;;5094186;28;20779;-78
2022/10/29 01:12:28;;;;;;;45.42;12.85;;;13.20;99.90;;;;;;5110168;28;20420;-78
2022/10/29 01:14:57;;;;;;;40.27;13.13;;;;;;;;;;5085713;28;20451;-78
2022/10/29 01:17:51;;;;;;;43.45;14.20;;;13.20;99.90;;;;;;5112876;28;20424;-78
2022/10/29 01:20:32;;;;;;;34.35;11.70;;;;;;;;;;5110874;28;20847;-78
2022/10/29 01:23:30;;;;;;;47.72;13.05;;;13.00;99.90;;;;;;5112820;28;20512;-78
2022/10/29 01:25:59;;;;;;;44.43;13.43;;;;;;;;;;5095255;28;20455;-78
2022/10/29 01:28:34;;;;;;;49.28;13.23;;;;;;;;;;5111665;28;20412;-78
2022/10/29 01:31:13;;;;;;;53.88;15.18;;;;;;;;;;5111567;28;20480;-78
2022/10/29 01:33:54;;;;;;;40.88;13.20;;;;;;;;;;5111065;28;21057;-78
2022/10/29 01:36:23;;;;;;;37.40;12.95;;;;;;;;;;5111471;28;20814;-80
2022/10/29 01:38:53;;;;;;;52.47;14.13;;;;;;;;;;5092929;28;20416;-79
2022/10/29 01:41:36;;;;;;;52.38;13.85;;;;;;;;;;5111117;28;20500;-79
2022/10/29 01:44:10;;;;;;;239.48;21.05;;;;;;;;;;5110256;28;20459;-79
2022/10/29 01:46:39;;;;;;;194.77;20.27;;;;;;;;;;5083365;28;20418;-78
2022/10/29 01:49:11;;;;;;;146.07;17.40;;;12.90;99.90;;;;;;5084039;28;20425;-79
2022/10/29 01:51:38;;;;;;;97.45;16.45;;;13.00;99.90;;;;;;5075096;28;20398;-78
2022/10/29 01:54:10;;;;;;;52.88;13.05;;;13.00;99.90;;;;;;5073049;28;20467;-78
2022/10/29 01:56:36;;;;;;;65.55;14.52;;;;;;;;;;5058326;28;20418;-79
2022/10/29 01:59:06;;;;;;;53.05;14.07;;;12.90;99.90;;;;;;5090249;28;20513;-78
2022/10/29 02:02:18;;;;;;;92.88;16.42;;;12.90;99.90;;;;;;5092269;28;20406;-78
2022/10/29 02:05:09;;;;;;;98.13;15.82;;;13.00;99.90;;;;;;5031896;28;20429;-78
2022/10/29 02:07:58;;;;;;;168.90;16.88;;;13.00;99.90;;;;;;5033928;28;20449;-78
2022/10/29 02:10:32;;;;;;;147.60;16.90;;;;;;;;;;5096474;28;20429;-78
2022/10/29 02:12:59;;;;;;;160.50;17.90;;;12.70;99.90;;;;;;5091698;28;20901;-78
2022/10/29 02:15:34;;;;;;;202.02;18.17;;;;;;;;;;5074514;28;20762;-79
2022/10/29 02:18:01;;;;;;;186.50;19.53;;;;;;;;;;5092064;28;20402;-79
2022/10/29 02:20:27;;;;;;;130.02;17.02;;;;;;;;;;5073580;28;20409;-78
2022/10/29 02:22:53;;;;;;;106.05;16.05;;;;;;;;;;5090802;28;20432;-79
2022/10/29 02:25:20;;;;;;;107.30;15.30;;;;;;;;;;5090027;28;20464;-79
2022/10/29 02:27:46;;;;;;;116.25;18.08;;;;;;;;;;5074435;28;20430;-79
2022/10/29 02:30:12;;;;;;;113.03;14.90;;;;;;;;;;5090100;28;20410;-79
2022/10/29 02:32:38;;;;;;;157.48;17.63;;;;;;;;;;5090286;28;20409;-79
2022/10/29 02:35:05;;;;;;;242.25;21.77;;;;;;;;;;5088432;28;20774;-79
2022/10/29 02:37:31;;;;;;;235.18;18.20;;;;;;;;;;5091216;28;20471;-79
2022/10/29 02:39:57;;;;;;;146.63;15.93;;;;;;;;;;5090560;28;20425;-79
2022/10/29 02:42:23;;;;;;;216.65;17.17;;;;;;;;;;5073424;28;20939;-79
2022/10/29 02:44:49;;;;;;;149.40;15.68;;;;;;;;;;5072820;28;20754;-77
2022/10/29 02:47:17;;;;;;;225.65;19.60;;;;;;;;;;5085053;28;20509;-77
2022/10/29 02:49:43;;;;;;;127.68;15.35;;;;;;;;;;5093882;28;20431;-77
2022/10/29 02:52:09;;;;;;;197.35;14.30;;;;;;;;;;5093055;28;20449;-77
2022/10/29 02:54:35;;;;;;;200.47;15.03;;;11.90;99.90;;;;;;5110691;28;20523;-77
2022/10/29 02:57:01;;;;;;;191.93;15.37;;;;;;;;;;5110512;28;20412;-79
2022/10/29 02:59:27;;;;;;;207.67;14.93;;;;;;;;;;5093077;28;20427;-77
2022/10/29 03:01:53;;;;;;;248.93;16.63;;;;;;;;;;5092243;28;20412;-78
2022/10/29 03:04:19;;;;;;;240.20;18.13;;;;;;;;;;5076115;28;20450;-78
2022/10/29 03:06:45;;;;;;;207.75;16.23;;;;;;;;;;5088211;28;20500;-77
2022/10/29 03:09:11;;;;;;;165.82;15.60;;;;;;;;;;5094302;28;20400;-77
2022/10/29 03:11:37;;;;;;;134.70;15.63;;;;;;;;;;5110070;28;20517;-77
2022/10/29 03:14:03;;;;;;;152.23;17.30;;;;;;;;;;5108618;28;20409;-78
2022/10/29 03:16:29;;;;;;;130.40;14.63;;;;;;;;;;5092450;28;20444;-78
2022/10/29 03:18:55;;;;;;;127.30;14.45;;;;;;;;;;5093145;28;20424;-78
2022/10/29 03:21:21;;;;;;;108.32;14.50;;;;;;;;;;5108630;28;20912;-77
2022/10/29 03:23:47;;;;;;;84.03;13.90;;;;;;;;;;5110451;28;20498;-77
2022/10/29 03:26:14;;;;;;;41.72;11.60;;;;;;;;;;5090713;28;20439;-76
2022/10/29 03:28:40;;;;;;;54.35;11.20;;;;;;;;;;5093464;28;20423;-78
2022/10/29 03:31:06;;;;;;;86.95;11.77;;;;;;;;;;5109113;28;21041;-79
2022/10/29 03:33:32;;;;;;;165.68;15.43;;;;;;;;;;5110991;28;20426;-79
2022/10/29 03:35:59;;;;;;;222.53;19.23;;;12.60;99.90;;;;;;5092926;28;20415;-77
2022/10/29 03:38:26;;;;;;;153.25;15.80;;;;;;;;;;5093433;28;20518;-78
2022/10/29 03:40:52;;;;;;;141.23;15.25;;;;;;;;;;5106792;28;20741;-78
2022/10/29 03:43:18;;;;;;;169.48;16.33;;;;;;;;;;5110050;28;20424;-77
2022/10/29 03:45:52;;;;;;;189.07;16.60;;;12.40;99.90;;;;;;5094001;28;20420;-77
2022/10/29 03:48:18;;;;;;;175.63;17.83;;;;;;;;;;5113028;27;20414;-77
2022/10/29 03:50:45;;;;;;;135.90;15.52;;;;;;;;;;5081716;28;20416;-77
2022/10/29 03:53:11;;;;;;;155.15;17.77;;;;;;;;;;5093951;28;20483;-78
2022/10/29 03:55:37;;;;;;;176.50;17.50;;;;;;;;;;5098229;27;20418;-78
2022/10/29 03:58:03;;;;;;;111.90;15.65;;;;;;;;;;5076226;28;20412;-79
2022/10/29 04:00:29;;;;;;;152.63;16.45;;;;;;;;;;5106220;28;20475;-80
2022/10/29 04:02:55;;;;;;;134.75;15.48;;;;;;;;;;5114393;28;20422;-79
2022/10/29 04:05:21;;;;;;;104.72;16.10;;;;;;;;;;5096722;28;20414;-78
2022/10/29 04:07:47;;;;;;;126.75;16.55;;;;;;;;;;5113800;28;20406;-78
2022/10/29 04:10:13;;;;;;;121.05;16.02;;;;;;;;;;5095070;28;20489;-78
2022/10/29 04:12:44;;;;;;;116.47;16.83;;;12.40;99.90;;;;;;5112102;28;20414;-78
2022/10/29 04:15:10;;;;;;;108.93;16.63;;;12.20;99.90;;;;;;5076087;28;20425;-78
2022/10/29 04:17:36;;;;;;;115.63;15.50;;;;;;;;;;5078602;28;20406;-78
2022/10/29 04:20:02;;;;;;;107.22;17.50;;;;;;;;;;5112494;28;20461;-78
2022/10/29 04:22:28;;;;;;;154.02;18.63;;;;;;;;;;5095779;28;20414;-78
2022/10/29 04:24:54;;;;;;;127.90;17.27;;;;;;;;;;5111372;28;20425;-78
2022/10/29 04:27:20;;;;;;;184.43;19.58;;;;;;;;;;5095307;28;20430;-78
2022/10/29 04:29:46;;;;;;;203.57;20.73;;;;;;;;;;5096186;28;20909;-78
2022/10/29 04:32:12;;;;;;;176.82;19.17;;;;;;;;;;5095987;28;20850;-78
2022/10/29 04:34:38;;;;;;;259.33;23.10;;;;;;;;;;5112306;27;20792;-78
2022/10/29 04:37:04;;;;;;;255.68;26.00;;;;;;;;;;5110132;28;20499;-78
2022/10/29 04:39:30;;;;;;;240.75;23.83;;;;;;;;;;5093720;28;20422;-78
2022/10/29 04:41:57;;;;;;;153.13;22.80;;;;;;;;;;5095569;28;20422;-77
2022/10/29 04:44:23;;;;;;;196.77;23.33;;;;;;;;;;5112516;28;20418;-78
2022/10/29 04:46:49;;;;;;;227.80;25.45;;;;;;;;;;5091085;28;20477;-78
2022/10/29 04:49:15;;;;;;;236.93;25.95;;;;;;;;;;5091549;28;20420;-78
2022/10/29 04:51:41;;;;;;;256.33;27.65;;;;;;;;;;5090380;28;20467;-78
2022/10/29 04:54:07;;;;;;;138.93;21.60;;;;;;;;;;5075676;28;20427;-78
2022/10/29 04:56:33;;;;;;;316.55;31.00;;;;;;;;;;5075422;28;20400;-78
2022/10/29 04:58:59;;;;;;;314.50;28.90;;;;;;;;;;5092784;28;20491;-78
2022/10/29 05:01:25;;;;;;;316.02;29.67;;;;;;;;;;5107965;28;20420;-79
2022/10/29 05:03:51;;;;;;;304.90;31.58;;;;;;;;;;5108661;28;20419;-77
2022/10/29 05:06:17;;;;;;;253.57;29.07;;;;;;;;;;5095427;28;20449;-78
2022/10/29 05:08:43;;;;;;;295.70;31.60;;;;;;;;;;5111451;28;20510;-78
2022/10/29 05:11:09;;;;;;;343.38;32.55;;;;;;;;;;5112062;28;20968;-78
2022/10/29 05:13:36;;;;;;;290.92;31.13;;;;;;;;;;5095123;28;20408;-79
2022/10/29 05:16:02;;;;;;;305.03;31.77;;;;;;;;;;5113950;28;20488;-79
2022/10/29 05:18:28;;;;;;;278.50;31.10;;;;;;;;;;5093695;28;20463;-79
2022/10/29 05:20:55;;;;;;;270.08;31.75;;;12.40;99.90;;;;;;5111878;28;20420;-79
2022/10/29 05:23:21;;;;;;;223.57;29.00;;;;;;;;;;5094801;28;20454;-78
2022/10/29 05:25:48;;;;;;;271.85;34.17;;;;;;;;;;5095554;28;20428;-78
2022/10/29 05:28:17;;;;;;;253.67;32.03;;;;;;;;;;5094907;28;20475;-78
2022/10/29 05:30:44;;;;;;;227.88;30.15;;;;;;;;;;5111511;28;20927;-78
2022/10/29 05:33:13;;;;;;;285.75;33.22;;;12.30;99.90;;;;;;5111870;28;20412;-78
2022/10/29 05:35:39;;;;;;;163.93;28.48;;;;;;;;;;5095381;28;20448;-78
2022/10/29 05:38:05;;;;;;;159.85;27.98;;;;;;;;;;5094517;28;20424;-79
2022/10/29 05:40:32;;;;;;;272.83;31.58;;;;;;;;;;5094741;28;20448;-78
2022/10/29 05:42:58;;;;;;;321.88;33.67;;;;;;;;;;5095467;28;20508;-79
2022/10/29 05:45:24;;;;;;;246.40;30.40;;;;;;;;;;5111737;28;20420;-79
2022/10/29 05:48:01;;;;;;;339.17;37.40;;;12.60;99.90;;;;;;5110297;28;20431;-78
2022/10/29 05:50:28;;;;;;;371.75;38.67;;;12.50;99.90;;;;;;5110197;28;20443;-78
2022/10/29 05:52:59;;;;;;;328.52;34.95;;;12.40;99.90;;;;;;5110473;28;20412;-78
2022/10/29 05:55:25;;;;;;;309.75;33.38;;;;;;;;;;5112061;28;20420;-78
2022/10/29 05:57:58;;;;;;;265.88;28.35;;;;;;;;;;5111292;28;20404;-78
2022/10/29 06:00:25;;;;;;;309.58;31.95;;;;;;;;;;5077293;28;20891;-78
2022/10/29 06:02:52;;;;;;;249.73;29.77;;;;;;;;;;5111788;28;20484;-79
2022/10/29 06:05:18;;;;;;;274.70;29.45;;;;;;;;;;5094087;28;20428;-79
2022/10/29 06:07:44;;;;;;;325.52;30.65;;;;;;;;;;5112469;28;20479;-78
2022/10/29 06:10:10;;;;;;;156.73;23.95;;;;;;;;;;5095158;28;20400;-78
2022/10/29 06:12:36;;;;;;;336.13;29.67;;;;;;;;;;5074159;28;20443;-79
2022/10/29 06:15:02;;;;;;;290.63;29.00;;;;;;;;;;5105316;28;20548;-79
2022/10/29 06:17:28;;;;;;;273.33;27.67;;;;;;;;;;5089612;28;20416;-79
2022/10/29 06:19:54;;;;;;;369.17;31.90;;;;;;;;;;5092806;28;20424;-78
2022/10/29 06:22:20;;;;;;;761.95;65.00;;;;;;;;;;5091394;28;20427;-79
2022/10/29 06:24:46;;;;;;;240.98;26.95;;;;;;;;;;5092964;28;20496;-79
2022/10/29 06:27:12;;;;;;;705.72;57.40;;;;;;;;;;5094303;28;20424;-79
2022/10/29 06:29:39;;;;;;;289.45;30.10;;;;;;;;;;5077583;28;20479;-79
2022/10/29 06:32:05;;;;;;;485.08;45.30;;;;;;;;;;5094394;28;20923;-79
2022/10/29 06:34:31;;;;;;;333.95;33.70;;;;;;;;;;5093422;28;20852;-78
2022/10/29 06:37:00;;;;;;;1898.97;162.23;;;;;;;;;;5111177;28;20458;-79
2022/10/29 06:39:26;;;;;;;538.15;50.92;;;;;;;;;;5074624;28;20424;-79
2022/10/29 06:41:52;;;;;;;319.98;36.53;;;;;;;;;;5092170;28;20640;-79
2022/10/29 06:44:18;;;;;;;290.20;34.13;;;;;;;;;;5091778;28;20427;-78
2022/10/29 06:46:44;;;;;;;386.67;42.53;;;;;;;;;;5118329;27;20693;-78
2022/10/29 06:49:10;;;;;;;417.27;43.40;;;;;;;;;;5113448;27;20808;-79
2022/10/29 06:51:42;;;;;;;239.05;34.00;;;;;;;;;;5112568;27;20481;-78
2022/10/29 06:54:08;;;;;;;273.42;36.92;;;;;;;;;;5113050;27;20417;-78
2022/10/29 06:56:34;;;;;;;251.13;35.00;;;;;;;;;;5115205;27;20422;-78
2022/10/29 06:59:00;;;;;;;245.93;38.53;;;;;;;;;;5095417;27;20501;-78
2022/10/29 07:01:27;;;;;;;285.40;38.40;;;;;;;;;;5113951;27;20419;-79
2022/10/29 07:03:54;;;;;;;229.73;36.42;;;;;;;;;;5113939;27;20434;-78
2022/10/29 07:06:20;;;;;;;199.97;35.77;;;;;;;;;;5111266;27;20483;-79
2022/10/29 07:09:02;;;;;;;253.93;39.25;;;;;;;;;;5114838;27;20398;-79
2022/10/29 07:11:46;;;;;;;285.65;44.33;;;;;;;;;;5111056;27;20410;-79
2022/10/29 07:14:18;;;;;;;260.70;41.45;;;;;;;;;;5094944;27;20902;-79
2022/10/29 07:16:50;;;;;;;240.40;40.45;;;;;;;;;;5109347;27;20442;-79
2022/10/29 07:19:16;;;;;;;289.63;42.22;;;;;;;;;;5107220;27;20434;-79
2022/10/29 07:21:42;;;;;;;330.52;45.70;;;;;;;;;;5093978;27;20969;-79
2022/10/29 07:24:08;;;;;;;301.30;44.20;;;;;;;;;;5111768;27;20510;-79
2022/10/29 07:26:35;;;;;;;341.65;46.28;;;;;;;;;;5094091;27;20418;-79
2022/10/29 07:29:01;;;;;;;343.75;46.50;;;;;;;;;;5091923;27;20436;-79
2022/10/29 07:31:30;;;;;;;336.83;46.35;;;;;;;;;;5113700;27;20413;-80
2022/10/29 07:33:59;;;;;;;376.33;48.92;;;;;;;;;;5097494;27;20413;-79
2022/10/29 07:36:29;;;;;;;366.63;50.47;;;;;;;;;;5077688;27;20453;-80
2022/10/29 07:38:55;;;;;;;362.38;50.97;;;;;;;;;;5111573;27;20434;-79
2022/10/29 07:41:21;;;;;;;341.55;49.60;;;;;;;;;;5095718;27;20446;-80
2022/10/29 07:43:47;;;;;;;278.75;44.80;;;;;;;;;;5110230;27;20479;-80
2022/10/29 07:46:16;;;;;;;214.30;42.35;;;;;;;;;;5087021;28;20459;-79
2022/10/29 07:48:42;;;;;;;205.40;40.50;;;;;;;;;;5110904;27;20426;-79
2022/10/29 07:51:08;;;;;;;194.32;40.78;;;;;;;;;;5074635;28;20499;-80
2022/10/29 07:53:34;;;;;;;129.10;36.28;;;;;;;;;;5106147;27;20446;-80
2022/10/29 07:56:00;;;;;;;132.40;37.40;;;;;;;;;;5072982;28;20920;-80
2022/10/29 07:58:26;;;;;;;161.57;39.33;;;;;;;;;;5111123;27;20422;-80
2022/10/29 08:00:53;;;;;;;119.85;35.70;;;;;;;;;;5111601;28;20744;-80
2022/10/29 08:03:19;;;;;;;147.32;39.47;;;;;;;;;;5112809;28;20551;-80
2022/10/29 08:05:48;;;;;;;143.05;38.13;;;;;;;;;;5112131;28;20418;-80
2022/10/29 08:08:14;;;;;;;137.52;38.40;;;;;;;;;;5096436;28;20406;-80
2022/10/29 08:10:40;;;;;;;130.07;38.63;;;;;;;;;;5104265;28;20433;-80
2022/10/29 08:13:06;;;;;;;126.65;39.28;;;;;;;;;;5083815;28;20468;-79
2022/10/29 08:15:33;;;;;;;124.28;40.90;;;;;;;;;;5111857;28;20414;-80
2022/10/29 08:18:00;;;;;;;119.37;39.73;;;;;;;;;;5096407;28;20565;-80
2022/10/29 08:20:27;;;;;;;130.10;40.67;;;13.20;99.90;;;;;;5110952;28;20506;-81
2022/10/29 08:22:53;;;;;;;114.20;40.53;;;;;;;;;;5110150;28;20415;-80
2022/10/29 08:25:19;;;;;;;119.55;38.97;;;;;;;;;;5110013;28;20967;-79
2022/10/29 08:27:45;;;;;;;124.97;40.78;;;;;;;;;;5085656;28;20443;-80
2022/10/29 08:30:13;;;;;;;127.70;40.90;;;;;;;;;;5073820;28;20589;-79
2022/10/29 08:32:46;;;;;;;122.10;41.70;;;;;;;;;;5089849;28;20497;-79
2022/10/29 08:35:12;;;;;;;109.20;38.33;;;;;;;;;;5111138;28;20425;-79
2022/10/29 08:37:45;;;;;;;106.60;39.20;;;13.50;99.90;;;;;;5093023;28;20751;-79
2022/10/29 08:40:26;;;;;;;105.30;39.40;;;;;;;;;;5106987;27;20439;-79
2022/10/29 08:43:13;;;;;;;103.38;37.78;;;13.70;99.90;;;;;;5111972;27;20506;-79
2022/10/29 08:45:45;;;;;;;104.88;39.17;;;;;;;;;;5115709;27;20944;-78
2022/10/29 08:48:20;;;;;;;100.68;38.15;;;;;;;;;;5095211;27;20898;-78
2022/10/29 08:50:51;;;;;;;116.03;40.20;;;13.90;99.90;;;;;;5085446;27;20547;-79
2022/10/29 08:53:20;;;;;;;97.40;38.42;;;;;;;;;;5097934;27;20418;-79
2022/10/29 08:55:46;;;;;;;109.78;41.60;;;;;;;;;;5098513;27;20433;-79
2022/10/29 08:58:33;;;;;;;96.63;38.45;;;;;;;;;;5098094;27;20413;-79
2022/10/29 09:00:59;;;;;;;107.10;39.57;;;;;;;;;;5116594;27;20444;-79
2022/10/29 09:03:28;;;;;;;102.15;38.65;;;;;;;;;;5116061;27;20417;-79
2022/10/29 09:06:08;;;;;;;87.38;36.65;;;14.10;99.90;;;;;;5115132;27;20417;-79
2022/10/29 09:09:12;;;;;;;93.50;36.70;;;14.30;99.90;;;;;;5096307;27;20436;-79
2022/10/29 09:12:17;;;;;;;94.38;37.67;;;14.40;99.90;;;;;;4997413;28;20423;-79
2022/10/29 09:14:46;;;;;;;84.13;34.58;;;;;;;;;;5095928;28;20401;-80
2022/10/29 09:17:37;;;;;;;80.55;33.92;;;14.40;99.90;;;;;;5101465;27;20493;-80
2022/10/29 09:20:15;;;;;;;87.38;34.90;;;;;;;;;;5113065;27;20970;-80
2022/10/29 09:22:59;;;;;;;82.35;33.30;;;;;;;;;;5098150;27;20467;-78
2022/10/29 09:25:38;;;;;;;79.17;32.60;;;;;;;;;;5098828;27;20545;-79
2022/10/29 09:28:25;;;;;;;79.40;32.97;;;;;;;;;;5114870;27;20506;-80
2022/10/29 09:30:59;;;;;;;78.00;32.93;;;;;;;;;;5117069;27;20394;-80
2022/10/29 09:33:28;;;;;;;71.00;32.22;;;;;;;;;;5097114;27;20415;-79
2022/10/29 09:35:56;;;;;;;73.60;31.70;;;;;;;;;;5080167;27;20570;-82
2022/10/29 09:38:22;;;;;;;67.37;30.47;;;;;;;;;;5100411;27;20482;-80
2022/10/29 09:40:49;;;;;;;67.20;30.45;;;;;;;;;;5101603;27;20481;-80
2022/10/29 09:43:18;;;;;;;68.80;31.80;;;14.70;99.90;;;;;;5103889;27;20502;-80
2022/10/29 09:45:55;;;;;;;66.30;30.65;;;;;;;;;;5096457;27;20790;-80
2022/10/29 09:48:31;;;;;;;65.63;31.05;;;;;;;;;;5092334;27;20948;-80
2022/10/29 09:51:23;;;;;;;66.07;30.25;;;;;;;;;;5096803;27;20419;-80
2022/10/29 09:53:55;;;;;;;68.53;31.48;;;15.10;99.90;;;;;;5092817;27;20414;-81
2022/10/29 09:56:21;;;;;;;61.83;29.25;;;;;;;;;;5110817;27;20442;-82
2022/10/29 09:58:56;;;;;;;60.92;29.33;;;15.30;99.90;;;;;;5112069;27;20978;-81
2022/10/29 10:01:22;;;;;;;53.55;28.25;;;;;;;;;;5115089;27;20422;-81
2022/10/29 10:03:54;;;;;;;52.42;27.02;;;15.50;99.90;;;;;;5107503;27;20430;-81
2022/10/29 10:06:20;;;;;;;51.58;26.50;;;;;;;;;;5109562;27;20414;-82
2022/10/29 10:09:08;;;;;;;50.13;25.88;;;;;;;;;;5097615;27;20823;-80
2022/10/29 10:11:40;;;;;;;52.53;25.47;;;15.30;99.90;;;;;;5097148;27;20415;-80
2022/10/29 10:14:30;;;;;;;46.30;25.02;;;;;;;;;;5099566;27;20475;-80
2022/10/29 10:17:00;;;;;;;46.63;23.80;;;;;;;;;;5112284;27;20452;-79
2022/10/29 10:19:33;;;;;;;47.83;23.55;;;;;;;;;;5108307;27;20774;-79
2022/10/29 10:22:03;;;;;;;41.72;23.90;;;;;;;;;;5094744;27;20414;-79
2022/10/29 10:24:30;;;;;;;45.87;25.07;;;;;;;;;;5113692;27;20508;-80
2022/10/29 10:26:57;;;;;;;42.45;22.98;;;;;;;;;;5097474;27;20471;-80
2022/10/29 10:29:24;;;;;;;38.72;21.80;;;;;;;;;;5111406;27;20922;-79
2022/10/29 10:32:09;;;;;;;42.47;21.70;;;;;;;;;;5098594;27;20893;-79
2022/10/29 10:34:36;;;;;;;30.02;19.50;;;;;;;;;;5098169;27;20557;-79
2022/10/29 10:37:08;;;;;;;31.67;20.00;;;;;;;;;;5112871;27;20418;-79
2022/10/29 10:39:42;;;;;;;31.00;18.70;;;;;;;;;;5096738;27;20812;-79
2022/10/29 10:42:17;;;;;;;31.87;18.47;;;16.50;99.90;;;;;;5115137;27;20467;-80
2022/10/29 10:45:02;;;;;;;31.88;19.30;;;;;;;;;;5096347;27;20433;-79
2022/10/29 10:47:32;;;;;;;31.45;19.15;;;16.40;99.90;;;;;;5111258;27;20411;-80
2022/10/29 10:50:25;;;;;;;30.58;19.75;;;16.90;99.90;;;;;;5097225;27;20421;-80
2022/10/29 10:52:53;;;;;;;30.10;17.42;;;;;;;;;;5098263;27;20390;-80
2022/10/29 10:55:26;;;;;;;28.43;16.87;;;16.90;99.90;;;;;;5095577;27;20759;-81
2022/10/29 10:58:11;;;;;;;28.13;16.90;;;16.90;99.90;;;;;;5094633;27;20430;-81
2022/10/29 11:00:42;;;;;;;27.80;16.98;;;17.10;99.90;;;;;;5109885;27;20429;-81
2022/10/29 11:03:08;;;;;;;25.30;16.40;;;17.00;99.90;;;;;;5115261;27;20402;-81
2022/10/29 11:05:45;;;;;;;30.13;15.13;;;17.20;99.90;;;;;;5095983;27;20925;-80
2022/10/29 11:08:11;;;;;;;23.77;14.10;;;;;;;;;;5112716;27;20422;-79
2022/10/29 11:11:00;;;;;;;26.67;14.30;;;16.90;99.90;;;;;;5094986;27;20453;-81
2022/10/29 11:13:29;;;;;;;25.85;14.68;;;;;;;;;;5113707;27;20424;-80
2022/10/29 11:16:12;;;;;;;26.13;14.20;;;17.30;99.90;;;;;;5112230;27;20902;-79
2022/10/29 11:18:38;;;;;;;23.70;14.63;;;;;;;;;;5096275;27;20778;-79
2022/10/29 11:21:04;;;;;;;23.23;14.82;;;;;;;;;;5113051;27;20422;-78
2022/10/29 11:23:42;;;;;;;25.57;14.40;;;17.60;99.90;;;;;;5113789;27;20427;-79
2022/10/29 11:26:32;;;;;;;25.65;14.57;;;17.70;99.90;;;;;;5094564;27;20474;-79
2022/10/29 11:29:13;;;;;;;23.20;13.45;;;18.30;99.90;;;;;;5096081;27;20439;-80
2022/10/29 11:31:44;;;;;;;23.48;13.07;;;;;;;;;;5090799;27;20415;-80
2022/10/29 11:34:15;;;;;;;22.17;11.88;;;18.10;99.90;;;;;;5100438;27;20535;-80
2022/10/29 11:36:46;;;;;;;21.27;12.10;;;;;;;;;;5109012;27;20444;-80
2022/10/29 11:39:32;;;;;;;22.33;12.23;;;18.30;99.90;;;;;;5093797;27;20430;-80
2022/10/29 11:42:01;;;;;;;21.37;12.53;;;;;;;;;;5108922;27;20440;-80
2022/10/29 11:44:30;;;;;;;22.95;12.85;;;18.40;99.90;;;;;;5093446;27;20929;-80
2022/10/29 11:47:09;;;;;;;27.77;13.70;;;;;;;;;;5088105;28;20507;-81
2022/10/29 11:50:03;;;;;;;25.08;14.95;;;18.50;99.90;;;;;;5090859;28;20431;-81
2022/10/29 11:52:50;;;;;;;26.83;13.52;;;;;;;;;;5106269;28;20919;-81
2022/10/29 11:55:25;;;;;;;22.30;13.45;;;;;;;;;;5102915;28;20463;-81
2022/10/29 11:57:52;;;;;;;25.87;13.00;;;;;;;;;;5089448;28;20912;-79
2022/10/29 12:00:19;;;;;;;26.67;14.23;;;;;;;;;;5104975;28;20416;-79
2022/10/29 12:03:11;;;;;;;27.25;13.60;;;18.50;99.90;;;;;;5108171;28;20407;-78
2022/10/29 12:05:52;;;;;;;26.85;13.38;;;18.70;99.90;;;;;;5106321;28;20424;-78
2022/10/29 12:08:38;;;;;;;25.65;13.60;;;;;;;;;;5108461;28;20416;-78
2022/10/29 12:11:28;;;;;;;25.50;14.00;;;18.50;99.90;;;;;;5107281;28;20465;-79
2022/10/29 12:14:23;;;;;;;25.83;13.63;;;18.60;99.90;;;;;;5101924;28;20423;-79
2022/10/29 12:17:11;;;;;;;24.40;13.95;;;18.60;99.90;;;;;;5106478;28;20935;-78
2022/10/29 12:20:03;;;;;;;25.42;13.93;;;18.60;99.90;;;;;;5110347;28;20420;-79
2022/10/29 12:23:10;;;;;;;30.38;14.07;;;18.60;99.90;;;;;;5107432;28;20423;-79
2022/10/29 12:25:54;;;;;;;24.70;13.75;;;18.50;99.90;;;;;;5031918;28;20563;-78
2022/10/29 12:28:26;;;;;;;29.27;14.57;;;19.10;99.90;;;;;;5112011;27;20978;-77
2022/10/29 12:30:58;;;;;;;21.92;13.10;;;18.80;99.90;;;;;;5089310;28;20546;-78
2022/10/29 12:33:32;;;;;;;24.02;13.60;;;19.30;99.90;;;;;;5109701;28;20423;-78
2022/10/29 12:36:10;;;;;;;27.02;12.82;;;19.50;99.90;;;;;;5110915;28;20423;-78
2022/10/29 12:38:43;;;;;;;26.73;12.88;;;19.80;99.90;;;;;;5094978;28;20578;-78
2022/10/29 12:41:18;;;;;;;26.42;12.82;;;19.90;99.90;;;;;;5111136;28;20485;-78
2022/10/29 12:43:44;;;;;;;24.20;12.57;;;19.80;99.90;;;;;;5108703;28;20416;-78
2022/10/29 12:46:10;;;;;;;25.70;12.57;;;;;;;;;;5094184;28;20416;-78
2022/10/29 12:49:03;;;;;;;24.80;12.65;;;19.60;99.90;;;;;;5111984;28;21059;-78
2022/10/29 12:51:51;;;;;;;24.43;12.30;;;;;;;;;;5103037;28;20420;-78
2022/10/29 12:54:39;;;;;;;24.65;11.82;;;19.60;99.90;;;;;;5096102;28;20499;-78
2022/10/29 12:57:11;;;;;;;24.08;12.30;;;19.50;99.90;;;;;;5108723;28;20473;-79
2022/10/29 12:59:37;;;;;;;25.48;13.05;;;19.50;99.90;;;;;;5090875;28;20420;-79
2022/10/29 13:02:17;;;;;;;25.23;12.90;;;19.50;99.90;;;;;;5108846;28;20426;-78
2022/10/29 13:05:05;;;;;;;30.95;13.35;;;19.70;99.90;;;;;;5103767;28;20427;-78
2022/10/29 13:07:38;;;;;;;22.80;12.13;;;19.60;99.90;;;;;;5092048;28;20567;-78
2022/10/29 13:10:29;;;;;;;24.83;12.65;;;19.30;99.90;;;;;;5112963;28;20424;-79
2022/10/29 13:12:58;;;;;;;26.13;13.02;;;19.40;99.90;;;;;;5111951;28;20419;-77
2022/10/29 13:15:43;;;;;;;25.63;12.82;;;19.50;99.90;;;;;;5112997;28;20409;-78
2022/10/29 13:18:11;;;;;;;25.25;12.23;;;19.50;99.90;;;;;;5106968;28;20415;-79
2022/10/29 13:20:49;;;;;;;28.58;12.93;;;19.60;99.90;;;;;;5086500;28;20835;-77
2022/10/29 13:23:22;;;;;;;23.23;12.05;;;;;;;;;;5108623;28;20424;-79
2022/10/29 13:25:51;;;;;;;21.53;12.07;;;19.40;99.90;;;;;;5112823;28;20443;-80
2022/10/29 13:28:17;;;;;;;28.33;11.98;;;19.50;99.90;;;;;;5089680;28;20420;-79
2022/10/29 13:30:47;;;;;;;21.88;11.95;;;20.00;99.90;;;;;;5092555;28;21164;-79
2022/10/29 13:33:28;;;;;;;20.48;11.85;;;20.00;99.90;;;;;;5092927;28;20412;-79
2022/10/29 13:36:00;;;;;;;23.25;12.05;;;20.30;99.90;;;;;;5113458;28;20412;-78
2022/10/29 13:38:44;;;;;;;22.20;11.90;;;20.10;99.90;;;;;;5089454;28;20412;-78
2022/10/29 13:41:28;;;;;;;21.92;11.35;;;20.00;99.90;;;;;;5095017;28;20420;-80
2022/10/29 13:43:56;;;;;;;20.55;11.20;;;20.10;99.90;;;;;;5093918;28;20424;-78
2022/10/29 13:46:37;;;;;;;19.20;11.07;;;20.00;99.90;;;;;;5112835;27;20419;-78
2022/10/29 13:49:11;;;;;;;20.30;11.10;;;20.10;99.90;;;;;;5109651;27;20857;-78
2022/10/29 13:51:42;;;;;;;23.03;11.50;;;20.20;99.90;;;;;;5120321;27;20410;-78
2022/10/29 13:54:18;;;;;;;23.15;11.02;;;;;;;;;;5114643;27;20415;-79
2022/10/29 13:56:59;;;;;;;20.45;10.68;;;20.20;99.90;;;;;;5110813;27;20414;-80